Time;durP1;ratioP1;P1;durP2;ratioP2;P2;SDS_P1;SDS_P2;PMS_P1;PMS_P2;Temp;Humidity;BMP_temperature;BMP_pressure;BME280_temperature;BME280_humidity;BME280_pressure;Samples;Min_cycle;Max_cycle;Signal;HPM_P1;HPM_P2
2022/07/24 00:00:56;;;;;;;3.20;1.50;;;;;;;20.08;68.63;99232.80;25027;1317;3026778;-64
2022/07/24 00:03:26;;;;;;;4.00;1.70;;;;;;;20.03;68.74;99229.92;25018;1317;3054198;-63
2022/07/24 00:05:55;;;;;;;10.60;1.80;;;;;;;19.78;69.21;99231.74;25023;1316;3026416;-61
2022/07/24 00:08:24;;;;;;;4.10;1.80;;;;;;;19.52;70.20;99233.02;24932;1317;3026346;-64
2022/07/24 00:10:53;;;;;;;2.50;1.60;;;;;;;19.38;70.63;99228.33;25047;1317;3054514;-67
2022/07/24 00:13:22;;;;;;;9.30;1.90;;;;;;;19.27;71.19;99228.71;24931;1318;3026987;-65
2022/07/24 00:15:54;;;;;;;2.00;1.50;;;;;;;19.21;71.35;99226.66;24955;1317;3054749;-67
2022/07/24 00:18:27;;;;;;;4.10;1.60;;;;;;;19.68;70.05;99227.30;25016;1317;3054899;-64
2022/07/24 00:20:57;;;;;;;2.50;1.60;;;;;;;19.89;69.07;99230.75;25017;1317;3027805;-66
2022/07/24 00:23:36;;;;;;;3.90;1.90;;;;;;;19.76;69.30;99230.17;24920;1318;3052768;-67
2022/07/24 00:26:05;;;;;;;11.30;2.00;;;;;;;19.50;70.26;99233.87;24983;1317;3026877;-67
2022/07/24 00:28:34;;;;;;;3.20;2.10;;;;;;;19.36;70.90;99232.80;24928;1317;3057156;-64
2022/07/24 00:31:03;;;;;;;4.60;1.90;;;;;;;19.23;71.16;99231.44;24911;1319;3026560;-68
2022/07/24 00:33:32;;;;;;;5.00;2.00;;;;;;;19.08;71.94;99233.15;24962;1317;3054970;-67
2022/07/24 00:36:01;;;;;;;2.20;1.50;;;;;;;19.06;71.82;99229.44;25020;1317;3026426;-63
2022/07/24 00:38:30;;;;;;;3.20;1.90;;;;;;;19.62;70.48;99229.27;24941;1317;3054782;-65
2022/07/24 00:40:59;;;;;;;3.40;1.90;;;;;;;19.84;69.21;99227.95;24957;1317;3026439;-65
2022/07/24 00:43:29;;;;;;;4.70;2.00;;;;;;;19.74;69.48;99227.76;24991;1317;3051594;-63
2022/07/24 00:45:58;;;;;;;4.50;2.40;;;;;;;19.45;70.31;99224.27;24971;1317;3026622;-68
2022/07/24 00:48:27;;;;;;;5.00;2.20;;;;;;;19.20;71.51;99223.56;24981;1317;3069851;-63
2022/07/24 00:50:56;;;;;;;3.80;2.30;;;;;;;19.09;71.29;99220.76;24940;1317;3026347;-68
2022/07/24 00:53:25;;;;;;;7.90;2.80;;;;;;;19.03;71.91;99219.11;25019;1317;3026199;-67
2022/07/24 00:55:54;;;;;;;5.30;2.00;;;;;;;18.98;72.17;99223.42;24940;1317;3071162;-64
2022/07/24 00:58:24;;;;;;;5.10;2.00;;;;;;;19.46;71.01;99225.45;24992;1317;3027535;-68
2022/07/24 01:00:54;;;;;;;3.90;2.50;;;;;;;19.68;69.89;99224.55;24960;1319;3026892;-66
2022/07/24 01:03:23;;;;;;;6.30;2.30;;;;;;;19.54;70.35;99233.83;25078;1317;3068981;-66
2022/07/24 01:05:53;;;;;;;5.00;2.60;;;;;;;19.29;70.92;99226.79;24992;1317;3026404;-66
2022/07/24 01:08:22;;;;;;;3.60;2.30;;;;;;;19.03;72.31;99233.95;24996;1317;3026615;-65
2022/07/24 01:10:51;;;;;;;4.80;2.40;;;;;;;18.95;72.53;99236.02;24978;1317;3071159;-66
2022/07/24 01:13:20;;;;;;;4.60;2.00;;;;;;;18.87;72.90;99247.41;24975;1317;3026320;-64
2022/07/24 01:15:50;;;;;;;5.30;2.60;;;;;;;19.25;71.40;99238.55;24930;1317;3026264;-67
2022/07/24 01:18:19;;;;;;;6.00;2.50;;;;;;;19.38;70.53;99239.90;24981;1317;3026192;-64
2022/07/24 01:20:50;;;;;;;9.90;2.30;;;;;;;19.37;70.20;99235.91;24976;1316;3050631;-65
2022/07/24 01:23:19;;;;;;;2.40;1.80;;;;;;;19.21;70.14;99233.77;24990;1317;3026702;-67
2022/07/24 01:25:48;;;;;;;5.10;2.30;;;;;;;19.08;70.56;99227.54;24934;1317;3027402;-66
2022/07/24 01:28:17;;;;;;;4.00;1.90;;;;;;;19.02;70.85;99226.45;24979;1317;3051394;-68
2022/07/24 01:30:46;;;;;;;5.50;1.70;;;;;;;18.99;70.78;99224.63;24999;1317;3025925;-63
2022/07/24 01:33:15;;;;;;;4.80;1.90;;;;;;;19.32;69.37;99221.48;24989;1317;3026911;-65
2022/07/24 01:35:44;;;;;;;6.10;1.90;;;;;;;19.61;68.28;99218.17;24930;1317;3051345;-65
2022/07/24 01:38:14;;;;;;;4.90;2.10;;;;;;;19.50;67.76;99223.92;24948;1317;3027465;-66
2022/07/24 01:40:43;;;;;;;5.00;1.90;;;;;;;19.45;68.23;99225.11;24997;1317;3026173;-68
2022/07/24 01:43:13;;;;;;;2.90;2.10;;;;;;;19.31;68.48;99231.30;24996;1317;3026501;-65
2022/07/24 01:45:42;;;;;;;2.50;1.70;;;;;;;19.19;68.94;99232.17;24985;1317;3026224;-67
2022/07/24 01:48:11;;;;;;;4.20;1.80;;;;;;;19.01;69.59;99230.64;24990;1317;3052145;-67
2022/07/24 01:50:40;;;;;;;2.50;1.60;;;;;;;19.00;69.73;99229.09;24987;1317;3027150;-69
2022/07/24 01:53:10;;;;;;;6.00;1.70;;;;;;;19.50;67.88;99228.04;25043;1317;3054745;-65
2022/07/24 01:55:39;;;;;;;1.80;1.40;;;;;;;19.70;66.67;99225.42;25010;1317;3027679;-67
2022/07/24 01:58:09;;;;;;;3.50;1.40;;;;;;;19.66;66.79;99217.31;25018;1318;3047420;-64
2022/07/24 02:00:40;;;;;;;2.70;1.70;;;;;;;19.60;67.11;99217.89;25045;1317;3029878;-69
2022/07/24 02:03:09;;;;;;;2.90;1.70;;;;;;;19.44;67.46;99218.84;25026;1317;3026716;-65
2022/07/24 02:05:39;;;;;;;2.00;1.30;;;;;;;19.36;67.88;99220.35;24997;1317;3053234;-64
2022/07/24 02:08:09;;;;;;;2.60;1.70;;;;;;;19.19;68.51;99224.39;24986;1317;3026099;-61
2022/07/24 02:10:39;;;;;;;8.70;2.00;;;;;;;19.09;69.14;99227.52;24954;1317;3026095;-64
2022/07/24 02:13:10;;;;;;;3.50;1.60;;;;;;;19.05;69.40;99231.67;24968;1317;3052659;-68
2022/07/24 02:15:39;;;;;;;4.10;1.40;;;;;;;19.48;68.19;99231.45;25025;1317;3028476;-60
2022/07/24 02:18:08;;;;;;;1.90;1.50;;;;;;;19.72;67.18;99226.71;25027;1317;3026472;-63
2022/07/24 02:20:38;;;;;;;4.70;1.60;;;;;;;19.67;67.12;99232.67;24972;1317;3051171;-65
2022/07/24 02:23:07;;;;;;;4.60;1.70;;;;;;;19.46;67.95;99232.84;25036;1317;3026198;-63
2022/07/24 02:25:36;;;;;;;4.50;2.00;;;;;;;19.23;68.48;99231.41;24962;1317;3070956;-65
2022/07/24 02:28:05;;;;;;;3.80;1.80;;;;;;;19.07;69.08;99227.36;24995;1317;3026921;-64
2022/07/24 02:30:35;;;;;;;5.40;2.10;;;;;;;18.97;69.29;99232.99;24988;1317;3053301;-65
2022/07/24 02:33:04;;;;;;;6.70;2.00;;;;;;;18.85;70.10;99228.77;24991;1317;3026438;-64
2022/07/24 02:35:33;;;;;;;8.60;1.30;;;;;;;18.85;70.18;99225.91;24980;1317;3054527;-67
2022/07/24 02:38:02;;;;;;;4.40;1.70;;;;;;;19.33;68.11;99220.09;24997;1317;3026590;-65
2022/07/24 02:40:32;;;;;;;2.80;1.60;;;;;;;19.58;67.23;99220.13;24980;1317;3051689;-64
2022/07/24 02:43:01;;;;;;;3.10;1.60;;;;;;;19.51;67.33;99217.96;25001;1318;3027203;-62
2022/07/24 02:45:30;;;;;;;3.30;1.60;;;;;;;19.37;67.26;99222.55;25066;1317;3027541;-69
2022/07/24 02:48:00;;;;;;;4.90;1.80;;;;;;;19.22;67.90;99225.31;25020;1317;3049229;-64
2022/07/24 02:50:31;;;;;;;3.20;1.70;;;;;;;19.13;68.62;99225.91;25040;1317;3026341;-65
2022/07/24 02:52:59;;;;;;;3.30;2.10;;;;;;;19.04;68.90;99228.02;25010;1317;3055512;-66
2022/07/24 02:55:28;;;;;;;6.60;1.80;;;;;;;18.97;68.90;99230.11;25000;1317;3026664;-67
2022/07/24 02:57:58;;;;;;;1.70;1.20;;;;;;;19.02;69.22;99229.64;24966;1317;3054387;-63
2022/07/24 03:00:27;;;;;;;2.40;1.70;;;;;;;19.52;67.76;99228.17;25022;1317;3026833;-67
2022/07/24 03:02:57;;;;;;;3.60;1.60;;;;;;;19.79;66.79;99231.98;25022;1317;3051419;-65
2022/07/24 03:05:26;;;;;;;5.80;2.10;;;;;;;19.85;66.54;99231.61;25066;1317;3026397;-63
2022/07/24 03:07:55;;;;;;;6.00;2.10;;;;;;;19.79;66.85;99231.45;25015;1317;3052732;-69
2022/07/24 03:10:26;;;;;;;5.30;2.20;;;;;;;19.57;67.64;99229.39;25022;1317;3026728;-69
2022/07/24 03:12:55;;;;;;;4.90;2.70;;;;;;;19.48;68.75;99232.88;25030;1317;3026832;-63
2022/07/24 03:15:25;;;;;;;7.20;2.80;;;;;;;19.32;69.46;99237.58;25021;1317;3027362;-67
2022/07/24 03:17:55;;;;;;;5.90;2.50;;;;;;;19.30;69.67;99238.23;24936;1320;3026302;-64
2022/07/24 03:20:27;;;;;;;6.40;2.00;;;;;;;19.25;70.19;99240.33;25000;1317;3052961;-64
2022/07/24 03:22:56;;;;;;;4.60;2.10;;;;;;;19.77;68.74;99238.27;24986;1317;3026749;-65
2022/07/24 03:25:26;;;;;;;5.00;2.50;;;;;;;20.01;67.86;99244.73;24907;1320;3026961;-66
2022/07/24 03:27:55;;;;;;;4.80;2.40;;;;;;;20.02;67.56;99241.42;25005;1317;3027094;-63
2022/07/24 03:30:24;;;;;;;4.50;2.40;;;;;;;19.91;68.11;99241.27;24957;1317;3058356;-65
2022/07/24 03:32:53;;;;;;;4.30;2.50;;;;;;;19.79;68.60;99241.48;24996;1317;3026930;-67
2022/07/24 03:35:22;;;;;;;5.10;2.60;;;;;;;19.61;69.41;99239.54;24985;1317;3054398;-66
2022/07/24 03:37:51;;;;;;;6.40;2.70;;;;;;;19.40;70.06;99245.72;24951;1317;3026221;-69
2022/07/24 03:40:20;;;;;;;4.90;2.20;;;;;;;19.30;70.78;99238.58;25002;1317;3053386;-69
2022/07/24 03:42:50;;;;;;;5.20;2.40;;;;;;;19.80;69.29;99233.87;24987;1317;3026121;-69
2022/07/24 03:45:19;;;;;;;3.10;2.10;;;;;;;20.08;68.15;99234.59;25102;1317;3049006;-63
2022/07/24 03:47:48;;;;;;;3.00;2.30;;;;;;;20.16;67.76;99236.27;24960;1317;3027445;-67
2022/07/24 03:50:17;;;;;;;6.50;2.60;;;;;;;20.08;67.90;99241.61;25025;1317;3026599;-68
2022/07/24 03:52:47;;;;;;;4.70;2.90;;;;;;;19.89;68.48;99244.14;24981;1317;3051041;-64
2022/07/24 03:55:17;;;;;;;6.40;2.80;;;;;;;19.81;68.94;99241.42;25030;1317;3026902;-65
2022/07/24 03:57:46;;;;;;;4.90;3.50;;;;;;;19.63;69.60;99237.58;24988;1317;3026211;-68
2022/07/24 04:00:15;;;;;;;3.80;2.00;;;;;;;19.57;69.88;99242.71;24979;1317;3048801;-67
2022/07/24 04:02:44;;;;;;;5.00;2.20;;;;;;;20.08;68.33;99241.14;24959;1316;3026891;-68
2022/07/24 04:05:13;;;;;;;5.00;2.30;;;;;;;20.47;66.73;99243.98;25005;1317;3026642;-67
2022/07/24 04:07:42;;;;;;;3.30;2.30;;;;;;;20.63;65.95;99236.09;24990;1317;3050804;-64
2022/07/24 04:10:11;;;;;;;2.70;2.40;;;;;;;20.61;65.60;99237.21;25022;1317;3026528;-67
2022/07/24 04:12:40;;;;;;;4.70;2.50;;;;;;;20.38;66.00;99237.13;24937;1317;3071337;-63
2022/07/24 04:15:09;;;;;;;5.90;2.50;;;;;;;20.41;66.18;99239.27;25015;1317;3026460;-68
2022/07/24 04:17:40;;;;;;;3.70;2.40;;;;;;;20.38;65.89;99239.46;25038;1317;3051372;-66
2022/07/24 04:20:10;;;;;;;3.20;2.60;;;;;;;20.33;66.09;99243.58;25057;1317;3027184;-66
2022/07/24 04:22:39;;;;;;;6.80;2.50;;;;;;;20.28;65.65;99247.00;25023;1317;3026683;-65
2022/07/24 04:25:08;;;;;;;3.30;2.30;;;;;;;20.32;65.78;99245.42;24475;1317;3772536;-65
2022/07/24 04:27:37;;;;;;;6.20;2.50;;;;;;;20.30;65.27;99252.00;24986;1317;3070483;-68
2022/07/24 04:30:07;;;;;;;3.60;2.10;;;;;;;20.22;65.47;99251.44;24995;1317;3026427;-63
2022/07/24 04:32:37;;;;;;;7.70;2.50;;;;;;;20.21;65.51;99250.23;25054;1317;3026451;-62
2022/07/24 04:35:06;;;;;;;2.50;2.30;;;;;;;20.24;65.50;99251.73;24974;1317;3029776;-68
2022/07/24 04:37:36;;;;;;;6.60;1.80;;;;;;;20.34;65.64;99247.71;24981;1317;3026544;-67
2022/07/24 04:40:06;;;;;;;3.60;1.90;;;;;;;21.00;63.65;99241.96;24992;1317;3026874;-66
2022/07/24 04:42:36;;;;;;;6.40;2.30;;;;;;;21.46;61.99;99242.84;24992;1317;3052375;-64
2022/07/24 04:45:07;;;;;;;2.80;2.30;;;;;;;21.59;61.27;99242.91;25022;1320;3026524;-66
2022/07/24 04:47:37;;;;;;;5.50;2.30;;;;;;;21.56;61.20;99241.95;25089;1317;3051970;-65
2022/07/24 04:50:07;;;;;;;5.00;2.20;;;;;;;21.40;61.92;99245.27;25029;1317;3028529;-64
2022/07/24 04:52:36;;;;;;;5.00;2.30;;;;;;;21.29;62.08;99245.71;24972;1317;3050626;-66
2022/07/24 04:55:07;;;;;;;5.10;2.40;;;;;;;21.26;62.20;99240.37;24981;1317;3026698;-64
2022/07/24 04:57:36;;;;;;;3.00;2.70;;;;;;;21.25;62.25;99240.27;25066;1317;3026401;-64
2022/07/24 05:00:06;;;;;;;4.60;2.70;;;;;;;21.22;62.54;99242.95;25006;1317;3028273;-67
2022/07/24 05:02:36;;;;;;;5.30;2.60;;;;;;;21.12;62.37;99247.02;25011;1317;3051590;-67
2022/07/24 05:05:05;;;;;;;5.70;2.40;;;;;;;21.09;62.70;99245.23;25050;1316;3026514;-63
2022/07/24 05:07:34;;;;;;;3.80;2.50;;;;;;;21.19;62.50;99247.02;24985;1317;3050378;-65
2022/07/24 05:10:07;;;;;;;3.00;2.30;;;;;;;21.25;62.92;99249.79;25034;1317;3027613;-65
2022/07/24 05:12:37;;;;;;;5.70;2.50;;;;;;;21.23;62.53;99252.48;25088;1317;3026285;-66
2022/07/24 05:15:06;;;;;;;4.60;2.50;;;;;;;21.20;62.71;99253.56;25099;1317;3027933;-66
2022/07/24 05:17:35;;;;;;;9.20;2.60;;;;;;;21.21;62.60;99252.86;25058;1317;3052301;-65
2022/07/24 05:20:07;;;;;;;4.10;2.60;;;;;;;21.24;62.75;99255.43;25087;1318;3029832;-65
2022/07/24 05:22:39;;;;;;;3.00;2.70;;;;;;;21.22;62.54;99249.60;25079;1317;3026219;-67
2022/07/24 05:25:08;;;;;;;3.80;2.50;;;;;;;21.23;62.97;99249.30;24994;1317;3029212;-64
2022/07/24 05:27:37;;;;;;;5.40;2.60;;;;;;;21.30;62.98;99249.05;25064;1317;3051907;-67
2022/07/24 05:30:07;;;;;;;8.10;2.70;;;;;;;21.38;62.76;99247.11;25085;1317;3026521;-65
2022/07/24 05:32:36;;;;;;;4.80;2.70;;;;;;;21.42;62.95;99246.67;25065;1317;3051713;-64
2022/07/24 05:35:05;;;;;;;4.30;2.90;;;;;;;21.53;61.92;99246.73;25037;1317;3026467;-65
2022/07/24 05:37:37;;;;;;;7.10;2.40;;;;;;;21.63;62.02;99242.83;25022;1317;3048420;-64
2022/07/24 05:40:07;;;;;;;7.60;2.80;;;;;;;21.68;61.51;99246.86;25075;1317;3027941;-65
2022/07/24 05:42:35;;;;;;;6.80;2.90;;;;;;;21.75;61.37;99253.23;25008;1317;3067743;-68
2022/07/24 05:45:05;;;;;;;3.20;2.50;;;;;;;21.81;61.31;99257.44;25028;1317;3027977;-65
2022/07/24 05:47:38;;;;;;;4.90;2.50;;;;;;;21.85;60.90;99259.79;25050;1317;3054414;-65
2022/07/24 05:50:11;;;;;;;4.20;2.50;;;;;;;21.93;60.90;99261.58;24952;1317;3027590;-63
2022/07/24 05:52:42;;;;;;;6.00;2.70;;;;;;;22.00;60.65;99262.30;25038;1317;3049373;-65
2022/07/24 05:55:11;;;;;;;6.20;2.80;;;;;;;22.07;60.49;99264.64;25060;1317;3026908;-67
2022/07/24 05:57:40;;;;;;;6.70;2.90;;;;;;;22.16;60.19;99259.89;25087;1317;3068232;-64
2022/07/24 06:00:10;;;;;;;3.70;2.90;;;;;;;22.22;59.96;99254.25;25023;1317;3028553;-67
2022/07/24 06:02:43;;;;;;;6.20;3.10;;;;;;;22.28;60.27;99250.91;25155;1317;3026736;-65
2022/07/24 06:05:12;;;;;;;5.10;2.80;;;;;;;22.35;60.43;99250.70;25129;1317;3026894;-66
2022/07/24 06:07:42;;;;;;;6.00;3.20;;;;;;;22.44;60.11;99248.27;25061;1317;3052775;-65
2022/07/24 06:10:12;;;;;;;4.60;2.70;;;;;;;22.56;60.24;99246.21;25141;1317;3026447;-65
2022/07/24 06:12:46;;;;;;;4.30;3.20;;;;;;;22.63;60.18;99243.08;25144;1317;3051002;-67
2022/07/24 06:15:17;;;;;;;4.90;3.40;;;;;;;22.71;60.14;99238.89;25072;1317;3026755;-66
2022/07/24 06:17:46;;;;;;;7.40;3.30;;;;;;;22.79;59.63;99242.96;25105;1315;3026852;-67
2022/07/24 06:20:16;;;;;;;4.90;3.00;;;;;;;22.85;59.63;99244.97;25059;1317;3051738;-68
2022/07/24 06:22:45;;;;;;;4.90;3.00;;;;;;;22.88;59.27;99241.97;25025;1317;3027066;-67
2022/07/24 06:25:15;;;;;;;5.40;3.20;;;;;;;22.94;59.35;99237.91;25014;1317;3026528;-65
2022/07/24 06:27:48;;;;;;;10.80;3.10;;;;;;;23.00;59.14;99232.55;25129;1317;3026902;-66
2022/07/24 06:30:22;;;;;;;7.00;3.60;;;;;;;23.10;59.14;99227.23;25070;1317;3027398;-65
2022/07/24 06:32:55;;;;;;;5.00;3.30;;;;;;;23.19;58.68;99218.41;25046;1317;3071753;-66
2022/07/24 06:35:25;;;;;;;6.60;3.90;;;;;;;23.29;58.22;99215.41;25117;1317;3027069;-68
2022/07/24 06:37:55;;;;;;;6.50;4.00;;;;;;;23.38;57.91;99214.55;25170;1317;3027526;-66
2022/07/24 06:40:25;;;;;;;7.40;4.50;;;;;;;23.47;57.93;99217.08;25088;1317;3027753;-66
2022/07/24 06:42:54;;;;;;;8.00;4.90;;;;;;;23.56;57.20;99213.97;25095;1317;3028365;-66
2022/07/24 06:45:23;;;;;;;7.70;4.70;;;;;;;23.63;56.64;99210.55;25119;1317;3054106;-64
2022/07/24 06:47:52;;;;;;;5.50;4.50;;;;;;;23.71;56.28;99209.09;25076;1317;3026988;-66
2022/07/24 06:50:23;;;;;;;11.70;4.50;;;;;;;23.76;56.29;99209.96;25044;1317;3047490;-69
2022/07/24 06:52:52;;;;;;;6.90;4.80;;;;;;;23.87;56.28;99207.88;25097;1317;3028735;-67
2022/07/24 06:55:21;;;;;;;6.10;4.00;;;;;;;23.97;56.02;99210.94;25088;1316;3071193;-66
2022/07/24 06:57:50;;;;;;;6.40;4.00;;;;;;;23.97;55.54;99206.30;25090;1317;3029856;-64
2022/07/24 07:00:19;;;;;;;7.50;3.90;;;;;;;23.99;55.80;99206.61;25072;1317;3053546;-68
2022/07/24 07:02:49;;;;;;;6.30;3.60;;;;;;;24.02;54.82;99207.48;25077;1317;3026504;-67
2022/07/24 07:05:18;;;;;;;5.30;3.60;;;;;;;24.10;55.01;99208.13;25145;1317;3056077;-68
2022/07/24 07:07:48;;;;;;;10.00;3.60;;;;;;;24.20;54.65;99209.23;25091;1317;3029552;-69
2022/07/24 07:10:16;;;;;;;10.20;3.50;;;;;;;24.29;54.82;99206.70;25074;1316;3048387;-67
2022/07/24 07:12:52;;;;;;;;;;;;;;;24.44;54.98;99206.16;25044;1316;3054986;-68
2022/07/24 07:15:21;;;;;;;10.10;3.10;;;;;;;24.49;54.78;99207.08;25029;1317;3026638;-68
2022/07/24 07:17:50;;;;;;;7.70;3.70;;;;;;;24.53;54.50;99200.92;25070;1317;3026964;-68
2022/07/24 07:20:19;;;;;;;7.40;3.20;;;;;;;24.61;54.31;99202.80;25071;1317;3054640;-68
2022/07/24 07:22:48;;;;;;;5.00;3.00;;;;;;;24.63;53.45;99203.81;25093;1317;3026813;-65
2022/07/24 07:25:18;;;;;;;7.20;3.20;;;;;;;24.66;53.71;99199.23;25082;1317;3053052;-68
2022/07/24 07:27:47;;;;;;;4.00;3.10;;;;;;;24.73;53.90;99201.33;25091;1317;3026599;-68
2022/07/24 07:30:16;;;;;;;4.80;3.10;;;;;;;24.82;53.16;99203.10;25081;1317;3058849;-67
2022/07/24 07:32:45;;;;;;;5.70;3.20;;;;;;;24.79;52.97;99199.29;25078;1316;3028391;-66
2022/07/24 07:35:16;;;;;;;5.10;3.00;;;;;;;24.87;52.90;99194.06;25087;1317;3026117;-69
2022/07/24 07:37:46;;;;;;;5.70;2.80;;;;;;;24.88;51.21;99192.09;25068;1317;3026467;-68
2022/07/24 07:40:15;;;;;;;3.90;2.60;;;;;;;24.97;50.94;99192.45;25057;1317;3027158;-68
2022/07/24 07:42:44;;;;;;;5.70;2.90;;;;;;;25.01;49.91;99193.20;25075;1317;3052766;-66
2022/07/24 07:45:13;;;;;;;7.20;2.80;;;;;;;25.09;50.41;99200.25;25086;1317;3027117;-66
2022/07/24 07:47:42;;;;;;;6.40;2.80;;;;;;;25.16;50.06;99199.23;25095;1317;3048863;-70
2022/07/24 07:50:11;;;;;;;8.70;2.90;;;;;;;25.15;50.08;99201.95;25043;1317;3026616;-68
2022/07/24 07:52:41;;;;;;;8.50;3.40;;;;;;;25.18;50.49;99200.19;25045;1317;3058014;-69
2022/07/24 07:55:11;;;;;;;8.30;3.00;;;;;;;25.31;50.10;99197.82;25032;1317;3030141;-68
2022/07/24 07:57:41;;;;;;;7.30;3.30;;;;;;;25.42;50.12;99199.16;25063;1317;3028796;-68
2022/07/24 08:00:11;;;;;;;6.10;3.00;;;;;;;25.56;49.92;99197.10;25048;1317;3058016;-69
2022/07/24 08:02:43;;;;;;;5.00;3.50;;;;;;;25.66;49.00;99194.69;25001;1317;3052760;-71
2022/07/24 08:05:12;;;;;;;3.50;2.50;;;;;;;25.61;48.23;99197.22;25107;1317;3026976;-69
2022/07/24 08:07:42;;;;;;;4.50;2.60;;;;;;;25.59;47.94;99197.00;25115;1317;3056157;-65
2022/07/24 08:10:11;;;;;;;4.80;2.50;;;;;;;25.66;48.08;99190.67;25053;1317;3027235;-68
2022/07/24 08:12:43;;;;;;;7.30;2.60;;;;;;;25.85;47.83;99189.73;25134;1315;3052218;-67
2022/07/24 08:15:14;;;;;;;3.90;2.10;;;;;;;26.01;47.48;99184.40;25085;1317;3026428;-65
2022/07/24 08:17:43;;;;;;;6.00;2.60;;;;;;;26.17;46.86;99184.72;25096;1317;3026727;-69
2022/07/24 08:20:12;;;;;;;5.70;2.50;;;;;;;26.26;46.64;99179.05;25104;1316;3053075;-70
2022/07/24 08:22:41;;;;;;;10.70;3.00;;;;;;;26.33;46.87;99179.73;25120;1317;3027471;-68
2022/07/24 08:25:10;;;;;;;5.00;3.00;;;;;;;26.47;46.95;99182.37;25125;1317;3051934;-69
2022/07/24 08:27:39;;;;;;;4.00;2.70;;;;;;;26.59;45.62;99182.80;25168;1316;3026674;-67
2022/07/24 08:30:09;;;;;;;4.10;2.90;;;;;;;26.67;45.73;99180.09;25086;1317;3026493;-70
2022/07/24 08:32:38;;;;;;;6.00;2.90;;;;;;;26.76;45.23;99186.73;25112;1316;3051188;-69
2022/07/24 08:35:07;;;;;;;3.30;2.40;;;;;;;26.83;44.64;99183.33;25073;1317;3026606;-66
2022/07/24 08:37:37;;;;;;;3.50;2.80;;;;;;;26.94;45.11;99180.35;25081;1317;3026411;-67
2022/07/24 08:40:07;;;;;;;3.90;2.50;;;;;;;26.95;44.06;99186.06;24985;1317;3054432;-65
2022/07/24 08:42:39;;;;;;;3.70;2.60;;;;;;;26.77;43.73;99186.49;25166;1317;3027096;-65
2022/07/24 08:45:08;;;;;;;4.00;2.90;;;;;;;26.74;43.92;99191.70;25035;1317;3028228;-75
2022/07/24 08:47:39;;;;;;;5.40;2.60;;;;;;;26.88;43.64;99187.97;25202;1317;3055260;-62
2022/07/24 08:50:09;;;;;;;5.40;2.50;;;;;;;26.97;43.90;99183.30;25104;1317;3026968;-66
2022/07/24 08:52:38;;;;;;;4.30;2.90;;;;;;;26.93;43.92;99178.98;25028;1317;3026492;-69
2022/07/24 08:55:07;;;;;;;2.50;2.30;;;;;;;26.94;43.25;99179.89;25059;1318;3027537;-64
2022/07/24 08:57:36;;;;;;;6.00;2.60;;;;;;;27.05;43.15;99183.14;25156;1317;3026707;-68
2022/07/24 09:00:06;;;;;;;3.20;2.60;;;;;;;26.87;42.17;99187.15;25079;1317;3055994;-64
2022/07/24 09:02:37;;;;;;;7.20;2.80;;;;;;;26.86;41.84;99184.20;25032;1316;3030116;-65
2022/07/24 09:05:07;;;;;;;5.70;2.50;;;;;;;26.99;42.38;99177.49;25003;1317;3027338;-63
2022/07/24 09:07:36;;;;;;;4.80;2.70;;;;;;;27.15;42.12;99174.80;24996;1316;3026898;-64
2022/07/24 09:10:13;;;;;;;3.70;2.70;;;;;;;27.25;42.08;99172.50;25009;1318;3026795;-66
2022/07/24 09:12:46;;;;;;;5.00;2.40;;;;;;;27.63;41.61;99166.73;25055;1316;3048961;-66
2022/07/24 09:15:29;;;;;;;3.30;2.50;;;;;;;27.87;40.62;99169.69;25046;1317;3026957;-65
2022/07/24 09:18:02;;;;;;;4.90;2.70;;;;;;;28.14;40.48;99166.11;25001;1316;3055091;-64
2022/07/24 09:20:31;;;;;;;8.90;2.70;;;;;;;28.48;40.70;99165.59;25094;1316;3026561;-65
2022/07/24 09:23:00;;;;;;;3.70;2.50;;;;;;;28.81;40.13;99165.86;24995;1317;3027988;-63
2022/07/24 09:25:29;;;;;;;2.30;2.10;;;;;;;28.84;40.35;99166.08;25072;1316;3054356;-66
2022/07/24 09:28:00;;;;;;;3.40;2.60;;;;;;;28.31;39.63;99164.73;25040;1316;3026696;-66
2022/07/24 09:30:50;;;;;;;2.50;2.30;;;;;;;28.17;39.76;99166.60;25088;1317;3026995;-65
2022/07/24 09:33:21;;;;;;;4.80;2.40;;;;;;;28.37;39.92;99161.33;25071;1318;3053103;-65
2022/07/24 09:35:51;;;;;;;5.60;2.70;;;;;;;28.23;39.65;99166.90;25041;1317;3026454;-64
2022/07/24 09:38:23;;;;;;;5.70;2.70;;;;;;;27.99;39.89;99166.41;25054;1316;3068076;-68
2022/07/24 09:40:54;;;;;;;4.90;2.60;;;;;;;28.20;39.26;99159.06;25067;1317;3027356;-65
2022/07/24 09:43:30;;;;;;;4.10;2.60;;;;;;;28.27;39.27;99154.83;25074;1317;3026857;-65
2022/07/24 09:46:10;;;;;;;3.50;2.40;;;;;;;28.34;38.54;99159.27;25095;1316;3051520;-64
2022/07/24 09:48:49;;;;;;;4.90;2.20;;;;;;;28.69;38.58;99154.06;25114;1317;3056073;-68
2022/07/24 09:51:19;;;;;;;5.30;2.60;;;;;;;29.06;38.12;99147.09;25100;1316;3052532;-69
2022/07/24 09:53:54;;;;;;;5.50;2.70;;;;;;;28.98;37.90;99154.11;25089;1317;3026465;-68
2022/07/24 09:56:23;;;;;;;4.80;2.90;;;;;;;28.61;37.86;99152.50;25085;1317;3051040;-64
2022/07/24 09:58:53;;;;;;;4.70;2.90;;;;;;;28.72;37.67;99155.04;25089;1317;3028558;-66
2022/07/24 10:01:24;;;;;;;4.10;2.40;;;;;;;28.89;37.29;99148.04;25150;1318;3052757;-67
2022/07/24 10:03:54;;;;;;;4.10;2.70;;;;;;;29.02;36.78;99145.68;25039;1316;3026571;-64
2022/07/24 10:06:27;;;;;;;4.10;2.80;;;;;;;28.94;36.63;99140.67;25064;1316;3071302;-67
2022/07/24 10:08:57;;;;;;;3.10;2.20;;;;;;;29.20;36.80;99140.81;25092;1316;3026294;-65
2022/07/24 10:11:27;;;;;;;4.60;2.50;;;;;;;29.11;37.40;99147.27;25023;1317;3025950;-68
2022/07/24 10:13:56;;;;;;;2.60;2.40;;;;;;;29.13;37.01;99138.00;25108;1317;3026459;-68
2022/07/24 10:16:27;;;;;;;4.60;2.60;;;;;;;29.28;37.22;99141.75;24954;1317;3027458;-66
2022/07/24 10:19:04;;;;;;;4.60;2.60;;;;;;;29.29;36.99;99147.84;25052;1317;3026879;-67
2022/07/24 10:21:35;;;;;;;3.00;2.50;;;;;;;29.12;36.94;99148.31;25123;1317;3055497;-65
2022/07/24 10:24:07;;;;;;;3.40;2.50;;;;;;;28.98;37.47;99144.96;25082;1316;3026602;-66
2022/07/24 10:26:37;;;;;;;3.60;2.70;;;;;;;28.86;37.84;99145.73;25103;1317;3026669;-65
2022/07/24 10:29:14;;;;;;;5.20;2.50;;;;;;;28.99;37.49;99141.46;25021;1316;3027119;-64
2022/07/24 10:31:48;;;;;;;4.10;2.40;;;;;;;29.16;37.25;99141.68;25106;1317;3052555;-68
2022/07/24 10:34:43;;;;;;;4.80;2.40;;;;;;;29.16;37.22;99140.27;25110;1316;3052367;-66
2022/07/24 10:37:37;;;;;;;3.80;2.40;;;;;;;29.25;37.26;99142.52;25102;1317;3059170;-66
2022/07/24 10:40:24;;;;;;;3.30;2.00;;;;;;;29.26;36.45;99139.81;25063;1317;3049628;-65
2022/07/24 10:43:05;;;;;;;3.20;2.20;;;;;;;29.43;36.37;99132.25;24998;1317;3053077;-66
2022/07/24 10:45:35;;;;;;;3.80;2.30;;;;;;;29.63;36.17;99127.77;25055;1316;3051758;-67
2022/07/24 10:48:20;;;;;;;5.10;2.40;;;;;;;29.53;35.58;99136.63;25036;1317;3027713;-65
2022/07/24 10:50:58;;;;;;;3.90;2.50;;;;;;;29.49;35.46;99129.34;25059;1316;3049713;-64
2022/07/24 10:53:42;;;;;;;3.80;2.30;;;;;;;29.73;35.74;99129.13;25079;1316;3054645;-65
2022/07/24 10:56:25;;;;;;;3.50;2.40;;;;;;;29.67;35.12;99127.17;25001;1316;3055598;-65
2022/07/24 10:59:06;;;;;;;5.10;2.50;;;;;;;29.85;34.89;99124.06;25007;1316;3058907;-66
2022/07/24 11:01:44;;;;;;;2.90;2.40;;;;;;;29.80;35.05;99129.54;25083;1317;3050694;-65
2022/07/24 11:04:19;;;;;;;3.90;2.10;;;;;;;29.72;34.47;99122.71;25089;1317;3053581;-64
2022/07/24 11:07:14;;;;;;;3.80;2.00;;;;;;;29.69;33.91;99124.25;25081;1316;3052214;-67
2022/07/24 11:10:10;;;;;;;4.20;2.30;;;;;;;29.74;33.81;99115.61;24998;1316;3070943;-67
2022/07/24 11:12:44;;;;;;;5.10;2.00;;;;;;;29.76;34.21;99110.59;24976;1317;3051974;-66
2022/07/24 11:18:19;;;;;;;6.40;2.20;;;;;;;29.65;34.43;99107.35;25052;1316;3052235;-68
2022/07/24 11:20:49;;;;;;;2.70;2.30;;;;;;;29.83;35.13;99105.67;25065;1317;3058918;-65
2022/07/24 11:23:18;;;;;;;4.10;2.40;;;;;;;29.75;34.98;99098.15;25062;1317;3026441;-65
2022/07/24 11:25:48;;;;;;;2.80;2.20;;;;;;;29.96;34.89;99099.15;25070;1317;3052656;-67
2022/07/24 11:28:17;;;;;;;2.60;1.90;;;;;;;30.01;33.74;99097.21;25096;1317;3026475;-65
2022/07/24 11:30:46;;;;;;;3.70;2.10;;;;;;;30.22;32.76;99088.58;25083;1316;3029489;-64
2022/07/24 11:33:20;;;;;;;6.20;2.20;;;;;;;30.59;32.80;99087.35;25055;1317;3054126;-67
2022/07/24 11:35:50;;;;;;;3.90;2.20;;;;;;;30.65;33.27;99086.15;25061;1317;3058368;-68